createdAt,value
2022-09-05T00:02:41.723Z,100215.00
2022-09-05T00:05:49.581Z,100215.00
2022-09-05T00:08:49.410Z,100217.00
2022-09-05T00:11:40.349Z,100222.00
2022-09-05T00:15:17.121Z,100229.00
2022-09-05T00:19:30.583Z,100221.00
2022-09-05T00:24:33.059Z,100217.00
2022-09-05T00:24:36.938Z,100215.00
2022-09-05T00:26:54.032Z,100218.00
2022-09-05T00:30:32.050Z,100215.00
2022-09-05T00:33:16.711Z,100208.00
2022-09-05T00:36:07.983Z,100207.00
2022-09-05T00:38:41.552Z,100207.00
2022-09-05T00:41:13.436Z,100210.00
2022-09-05T00:43:44.625Z,100209.00
2022-09-05T00:46:19.052Z,100212.00
2022-09-05T00:48:57.257Z,100210.00
2022-09-05T00:51:38.881Z,100213.00
2022-09-05T00:54:41.342Z,100208.00
2022-09-05T00:57:35.956Z,100215.00
2022-09-05T01:00:17.901Z,100211.00
2022-09-05T01:03:16.310Z,100188.00
2022-09-05T01:06:11.091Z,100217.00
2022-09-05T01:09:08.244Z,100223.00
2022-09-05T01:11:53.404Z,100211.00
2022-09-05T01:14:38.942Z,100216.00
2022-09-05T01:17:24.996Z,100220.00
2022-09-05T01:20:19.335Z,100222.00
2022-09-05T01:23:34.937Z,100220.00
2022-09-05T01:26:25.839Z,100223.00
2022-09-05T01:29:16.255Z,100225.00
2022-09-05T01:32:09.391Z,100227.00
2022-09-05T01:34:56.050Z,100226.00
2022-09-05T01:37:37.416Z,100221.00
2022-09-05T01:40:24.834Z,100225.00
2022-09-05T01:43:14.397Z,100225.00
2022-09-05T01:45:51.861Z,100225.00
2022-09-05T01:48:47.423Z,100231.00
2022-09-05T01:51:31.749Z,100228.00
2022-09-05T01:54:24.838Z,100227.00
2022-09-05T01:57:11.960Z,100226.00
2022-09-05T01:59:49.879Z,100227.00
2022-09-05T02:02:50.422Z,100230.00
2022-09-05T02:05:49.693Z,100230.00
2022-09-05T02:08:55.039Z,100219.00
2022-09-05T02:11:44.232Z,100214.00
2022-09-05T02:14:33.970Z,100196.00
2022-09-05T02:17:33.532Z,100222.00
2022-09-05T02:20:23.762Z,100227.00
2022-09-05T02:23:02.803Z,100224.00
2022-09-05T02:26:02.761Z,100224.00
2022-09-05T02:28:43.608Z,100222.00
2022-09-05T02:31:21.752Z,100229.00
2022-09-05T02:34:02.423Z,100227.00
2022-09-05T02:36:41.896Z,100220.00
2022-09-05T02:45:00.437Z,100225.00
2022-09-05T02:45:19.571Z,100231.00
2022-09-05T02:45:27.581Z,100225.00
2022-09-05T02:48:15.712Z,100231.00
2022-09-05T02:57:25.272Z,100217.00
2022-09-05T02:57:25.547Z,100215.00
2022-09-05T02:57:42.318Z,100227.00
2022-09-05T03:00:13.981Z,100212.00
2022-09-05T03:03:05.658Z,100211.00
2022-09-05T03:05:41.811Z,100210.00
2022-09-05T03:08:36.209Z,100215.00
2022-09-05T03:12:18.980Z,100209.00
2022-09-05T03:15:46.999Z,100205.00
2022-09-05T03:18:59.421Z,100207.00
2022-09-05T03:22:37.287Z,100204.00
2022-09-05T03:25:59.024Z,100205.00
2022-09-05T03:29:17.082Z,100175.00
2022-09-05T03:32:28.431Z,100210.00
2022-09-05T03:36:09.281Z,100209.00
2022-09-05T03:39:34.706Z,100221.00
2022-09-05T03:42:50.621Z,100219.00
2022-09-05T03:45:47.825Z,100226.00
2022-09-05T03:49:24.506Z,100218.00
2022-09-05T03:57:08.931Z,100205.00
2022-09-05T03:57:28.307Z,100221.00
2022-09-05T03:58:58.030Z,100226.00
2022-09-05T04:02:32.621Z,100223.00
2022-09-05T04:08:08.536Z,100218.00
2022-09-05T04:08:19.557Z,100218.00
2022-09-05T04:10:33.542Z,100210.00
2022-09-05T04:13:09.582Z,100213.00
2022-09-05T04:15:43.782Z,100218.00
2022-09-05T04:18:33.379Z,100226.00
2022-09-05T04:21:11.196Z,100225.00
2022-09-05T04:24:03.081Z,100218.00
2022-09-05T04:27:03.099Z,100227.00
2022-09-05T04:29:48.564Z,100225.00
2022-09-05T04:32:34.576Z,100230.00
2022-09-05T04:35:33.983Z,100228.00
2022-09-05T04:38:13.805Z,100227.00
2022-09-05T04:40:50.521Z,100234.00
2022-09-05T04:43:33.420Z,100232.00
2022-09-05T04:46:18.871Z,100235.00
2022-09-05T04:48:57.646Z,100231.00
2022-09-05T04:52:09.866Z,100234.00
2022-09-05T04:54:49.548Z,100246.00
2022-09-05T04:57:25.756Z,100236.00
2022-09-05T05:04:23.730Z,100201.00
2022-09-05T05:06:08.916Z,100241.00
2022-09-05T05:06:31.646Z,100239.00
2022-09-05T05:08:58.640Z,100240.00
2022-09-05T05:15:04.388Z,100243.00
2022-09-05T05:18:15.327Z,100245.00
2022-09-05T05:18:16.390Z,100240.00
2022-09-05T05:20:42.766Z,100246.00
2022-09-05T05:23:16.679Z,100242.00
2022-09-05T05:25:52.126Z,100244.00
2022-09-05T05:28:29.246Z,100246.00
2022-09-05T05:31:10.548Z,100243.00
2022-09-05T05:33:41.804Z,100251.00
2022-09-05T05:36:20.037Z,100257.00
2022-09-05T05:38:56.985Z,100254.00
2022-09-05T05:41:37.650Z,100260.00
2022-09-05T05:44:15.447Z,100267.00
2022-09-05T05:46:48.095Z,100271.00
2022-09-05T05:49:39.747Z,100265.00
2022-09-05T05:53:08.309Z,100260.00
2022-09-05T05:55:59.676Z,100261.00
2022-09-05T05:58:59.555Z,100263.00
2022-09-05T06:02:20.217Z,100263.00
2022-09-05T06:05:24.226Z,100263.00
2022-09-05T06:12:28.061Z,100269.00
2022-09-05T06:14:58.127Z,100271.00
2022-09-05T06:15:35.016Z,100273.00
2022-09-05T06:18:45.473Z,100276.00
2022-09-05T06:22:09.041Z,100278.00
2022-09-05T06:25:23.255Z,100269.00
2022-09-05T06:28:19.045Z,100274.00
2022-09-05T06:31:22.515Z,100274.00
2022-09-05T06:34:29.058Z,100279.00
2022-09-05T06:37:18.086Z,100285.00
2022-09-05T06:40:08.971Z,100272.00
2022-09-05T06:43:03.989Z,100279.00
2022-09-05T06:45:49.800Z,100279.00
2022-09-05T06:48:45.616Z,100278.00
2022-09-05T06:51:44.223Z,100277.00
2022-09-05T06:54:59.569Z,100270.00
2022-09-05T06:58:13.984Z,100271.00
2022-09-05T07:00:48.608Z,100270.00
2022-09-05T07:03:46.851Z,100273.00
2022-09-05T07:06:48.089Z,100276.00
2022-09-05T07:09:31.508Z,100270.00
2022-09-05T07:12:17.495Z,100268.00
2022-09-05T07:15:08.280Z,100272.00
2022-09-05T07:18:14.231Z,100277.00
2022-09-05T07:21:17.438Z,100276.00
2022-09-05T07:24:06.506Z,100270.00
2022-09-05T07:26:53.672Z,100271.00
2022-09-05T07:29:30.528Z,100272.00
2022-09-05T07:32:03.174Z,100273.00
2022-09-05T07:34:33.762Z,100278.00
2022-09-05T07:37:14.664Z,100280.00
2022-09-05T07:39:50.896Z,100275.00
2022-09-05T07:42:26.899Z,100273.00
2022-09-05T07:45:00.740Z,100278.00
2022-09-05T07:47:32.511Z,100256.00
2022-09-05T07:53:23.093Z,100273.00
2022-09-05T07:56:47.244Z,100280.00
2022-09-05T07:57:03.158Z,100278.00
2022-09-05T07:58:51.681Z,100266.00
2022-09-05T08:01:22.768Z,100273.00
2022-09-05T08:03:57.233Z,100274.00
2022-09-05T08:07:34.347Z,100276.00
2022-09-05T08:10:06.350Z,100235.00
2022-09-05T08:12:27.744Z,100271.00
2022-09-05T08:15:13.969Z,100271.00
2022-09-05T08:18:08.118Z,100279.00
2022-09-05T08:20:46.218Z,100274.00
2022-09-05T08:23:39.993Z,100280.00
2022-09-05T08:26:14.776Z,100270.00
2022-09-05T08:29:00.106Z,100261.00
2022-09-05T08:31:42.015Z,100270.00
2022-09-05T08:34:18.477Z,100269.00
2022-09-05T08:37:02.634Z,100266.00
2022-09-05T08:39:34.738Z,100266.00
2022-09-05T08:42:24.188Z,100260.00
2022-09-05T08:46:35.664Z,100260.00
2022-09-05T08:48:22.876Z,100266.00
2022-09-05T08:51:26.474Z,100253.00
2022-09-05T08:54:21.673Z,100254.00
2022-09-05T08:57:02.557Z,100261.00
2022-09-05T09:00:10.343Z,100248.00
2022-09-05T09:03:05.010Z,100247.00
2022-09-05T09:06:17.951Z,100248.00
2022-09-05T09:09:06.916Z,100246.00
2022-09-05T09:11:39.569Z,100231.00
2022-09-05T09:14:36.587Z,100244.00
2022-09-05T09:17:27.266Z,100246.00
2022-09-05T09:20:16.745Z,100209.00
2022-09-05T09:22:56.326Z,100245.00
2022-09-05T09:25:33.142Z,100250.00
2022-09-05T09:28:47.394Z,100244.00
2022-09-05T09:31:46.862Z,100249.00
2022-09-05T09:34:36.904Z,100238.00
2022-09-05T09:38:01.325Z,100232.00
2022-09-05T09:41:29.649Z,100245.00
2022-09-05T09:44:41.187Z,100240.00
2022-09-05T09:47:22.144Z,100236.00
2022-09-05T09:50:22.038Z,100232.00
2022-09-05T09:53:24.498Z,100233.00
2022-09-05T09:56:43.500Z,100224.00
2022-09-05T09:59:54.803Z,100222.00
2022-09-05T10:07:31.792Z,100198.00
2022-09-05T10:10:49.220Z,100215.00
2022-09-05T10:10:49.224Z,100216.00
2022-09-05T10:13:32.362Z,100222.00
2022-09-05T10:16:53.270Z,100211.00
2022-09-05T10:20:20.948Z,100209.00
2022-09-05T10:23:13.318Z,100209.00
2022-09-05T10:26:33.351Z,100220.00
2022-09-05T10:29:17.070Z,100208.00
2022-09-05T10:35:04.487Z,100206.00
2022-09-05T10:35:13.965Z,100201.00
2022-09-05T10:37:51.960Z,100193.00
2022-09-05T10:40:24.115Z,100192.00
2022-09-05T10:43:00.528Z,100202.00
2022-09-05T10:45:44.171Z,100190.00
2022-09-05T10:48:25.357Z,100164.00
2022-09-05T10:51:01.785Z,100182.00
2022-09-05T10:53:41.318Z,100180.00
2022-09-05T10:56:15.382Z,100186.00
2022-09-05T11:01:37.534Z,100181.00
2022-09-05T11:02:28.290Z,100174.00
2022-09-05T11:05:05.886Z,100174.00
2022-09-05T11:07:45.281Z,100173.00
2022-09-05T11:10:20.946Z,100175.00
2022-09-05T11:13:25.240Z,100177.00
2022-09-05T11:16:12.771Z,100163.00
2022-09-05T11:19:02.331Z,100165.00
2022-09-05T11:21:52.711Z,100158.00
2022-09-05T11:24:41.972Z,100165.00
2022-09-05T11:27:27.259Z,100166.00
2022-09-05T11:30:02.523Z,100163.00
2022-09-05T11:39:31.118Z,100164.00
2022-09-05T11:40:09.702Z,100150.00
2022-09-05T11:40:09.970Z,100149.00
2022-09-05T11:42:48.939Z,100149.00
2022-09-05T11:46:09.021Z,100141.00
2022-09-05T11:49:13.736Z,100147.00
2022-09-05T11:52:51.470Z,100150.00
2022-09-05T11:56:03.417Z,100141.00
2022-09-05T11:59:10.038Z,100135.00
2022-09-05T12:02:11.033Z,100135.00
2022-09-05T12:05:47.630Z,100138.00
2022-09-05T12:07:57.420Z,100140.00
2022-09-05T12:10:46.967Z,100135.00
2022-09-05T12:13:35.239Z,100129.00
2022-09-05T12:16:26.491Z,100131.00
2022-09-05T12:19:19.708Z,100127.00
2022-09-05T12:22:29.059Z,100128.00
2022-09-05T12:27:38.831Z,100129.00
2022-09-05T12:29:32.703Z,100123.00
2022-09-05T12:32:50.654Z,100112.00
2022-09-05T12:36:04.364Z,100107.00
2022-09-05T12:40:28.687Z,100112.00
2022-09-05T12:41:36.724Z,100109.00
2022-09-05T12:44:39.687Z,100115.00
2022-09-05T12:46:28.165Z,100112.00
2022-09-05T12:49:07.601Z,100109.00
2022-09-05T12:51:47.686Z,100104.00
2022-09-05T12:54:33.079Z,100109.00
2022-09-05T13:00:29.026Z,100107.00
2022-09-05T13:03:05.378Z,100117.00
2022-09-05T13:03:28.094Z,100115.00
2022-09-05T13:06:05.084Z,100113.00
2022-09-05T13:08:47.270Z,100117.00
2022-09-05T13:14:49.894Z,100115.00
2022-09-05T13:14:59.361Z,100121.00
2022-09-05T13:17:18.169Z,100105.00
2022-09-05T13:19:52.261Z,100106.00
2022-09-05T13:22:24.665Z,100108.00
2022-09-05T13:25:05.146Z,100099.00
2022-09-05T13:27:41.317Z,100107.00
2022-09-05T13:31:56.384Z,100105.00
2022-09-05T13:38:12.465Z,100104.00
2022-09-05T13:38:12.572Z,100105.00
2022-09-05T13:39:04.273Z,100098.00
2022-09-05T13:41:44.581Z,100101.00
2022-09-05T13:44:26.988Z,100097.00
2022-09-05T13:47:00.758Z,100093.00
2022-09-05T13:49:35.211Z,100103.00
2022-09-05T13:52:27.906Z,100092.00
2022-09-05T13:55:13.170Z,100093.00
2022-09-05T13:57:46.586Z,100095.00
2022-09-05T14:01:14.820Z,100089.00
2022-09-05T14:08:17.912Z,100096.00
2022-09-05T14:11:44.716Z,100097.00
2022-09-05T14:17:54.181Z,100086.00
2022-09-05T14:20:49.698Z,100087.00
2022-09-05T14:23:24.435Z,100087.00
2022-09-05T14:25:57.755Z,100088.00
2022-09-05T14:28:33.435Z,100083.00
2022-09-05T14:34:05.743Z,100085.00
2022-09-05T14:37:40.948Z,100078.00
2022-09-05T14:37:49.197Z,100069.00
2022-09-05T14:41:07.115Z,100063.00
2022-09-05T14:44:15.610Z,100063.00
2022-09-05T14:47:35.597Z,100061.00
2022-09-05T14:50:37.114Z,100060.00
2022-09-05T14:56:57.764Z,100053.00
2022-09-05T15:02:48.793Z,100054.00
2022-09-05T15:02:56.783Z,100055.00
2022-09-05T15:04:57.568Z,100052.00
2022-09-05T15:07:31.618Z,100048.00
2022-09-05T15:12:14.753Z,100042.00
2022-09-05T15:13:20.154Z,100049.00
2022-09-05T15:16:01.964Z,100045.00
2022-09-05T15:18:35.066Z,100044.00
2022-09-05T15:21:33.507Z,100046.00
2022-09-05T15:24:17.095Z,100046.00
2022-09-05T15:26:53.288Z,100042.00
2022-09-05T15:29:26.781Z,100040.00
2022-09-05T15:32:14.927Z,100046.00
2022-09-05T15:34:42.961Z,100048.00
2022-09-05T15:37:33.228Z,100050.00
2022-09-05T15:40:07.670Z,100043.00
2022-09-05T15:42:52.671Z,100050.00
2022-09-05T15:45:29.036Z,100047.00
2022-09-05T15:48:15.256Z,100043.00
2022-09-05T15:50:51.084Z,100056.00
2022-09-05T15:53:25.821Z,100036.00
2022-09-05T15:56:00.241Z,100039.00
2022-09-05T15:58:53.538Z,100042.00
2022-09-05T16:01:58.604Z,100039.00
2022-09-05T16:08:56.853Z,100038.00
2022-09-05T16:10:35.969Z,100018.00
2022-09-05T16:10:41.443Z,100028.00
2022-09-05T16:13:07.438Z,100039.00
2022-09-05T16:20:08.921Z,100041.00
2022-09-05T16:23:15.701Z,100044.00
2022-09-05T16:23:25.664Z,100047.00
2022-09-05T16:24:58.431Z,100046.00
2022-09-05T16:27:34.028Z,100044.00
2022-09-05T16:30:06.250Z,100048.00
2022-09-05T16:32:51.282Z,100048.00
2022-09-05T16:35:24.930Z,100046.00
2022-09-05T16:38:06.298Z,100052.00
2022-09-05T16:40:41.608Z,100048.00
2022-09-05T16:43:18.128Z,100047.00
2022-09-05T16:45:58.273Z,100051.00
2022-09-05T16:48:45.722Z,100045.00
2022-09-05T16:51:35.384Z,100058.00
2022-09-05T16:54:13.213Z,100052.00
2022-09-05T16:56:46.317Z,100049.00
2022-09-05T16:59:20.399Z,100048.00
2022-09-05T17:02:07.412Z,100046.00
2022-09-05T17:05:03.146Z,100051.00
2022-09-05T17:07:55.091Z,100051.00
2022-09-05T17:10:28.574Z,100045.00
2022-09-05T17:12:57.124Z,100053.00
2022-09-05T17:15:31.883Z,100050.00
2022-09-05T17:18:19.763Z,100048.00
2022-09-05T17:20:58.241Z,100057.00
2022-09-05T17:29:17.231Z,100049.00
2022-09-05T17:29:26.428Z,100045.00
2022-09-05T17:32:42.568Z,100061.00
2022-09-05T17:35:42.190Z,100061.00
2022-09-05T17:38:48.520Z,100059.00
2022-09-05T17:41:48.405Z,100060.00
2022-09-05T17:44:25.298Z,100066.00
2022-09-05T17:47:15.181Z,100065.00
2022-09-05T17:49:46.367Z,100065.00
2022-09-05T17:52:24.337Z,100066.00
2022-09-05T17:54:57.423Z,100058.00
2022-09-05T17:57:42.170Z,100047.00
2022-09-05T18:01:05.443Z,100078.00
2022-09-05T18:04:17.775Z,100073.00
2022-09-05T18:06:58.829Z,100082.00
2022-09-05T18:10:12.689Z,100074.00
2022-09-05T18:16:12.358Z,100081.00
2022-09-05T18:19:28.988Z,100083.00
2022-09-05T18:21:53.860Z,100083.00
2022-09-05T18:24:33.260Z,100083.00
2022-09-05T18:27:43.914Z,100079.00
2022-09-05T18:30:26.582Z,100084.00
2022-09-05T18:34:03.371Z,100073.00
2022-09-05T18:36:35.101Z,100060.00
2022-09-05T18:39:43.686Z,100078.00
2022-09-05T18:42:33.258Z,100083.00
2022-09-05T18:45:15.263Z,100081.00
2022-09-05T18:47:57.145Z,100065.00
2022-09-05T18:50:32.506Z,100077.00
2022-09-05T18:53:09.211Z,100066.00
2022-09-05T18:56:11.391Z,100084.00
2022-09-05T18:58:51.846Z,100079.00
2022-09-05T19:01:40.247Z,100081.00
2022-09-05T19:04:38.994Z,100083.00
2022-09-05T19:07:10.673Z,100082.00
2022-09-05T19:09:57.820Z,100087.00
2022-09-05T19:12:33.375Z,100084.00
2022-09-05T19:15:13.901Z,100076.00
2022-09-05T19:17:47.982Z,100074.00
2022-09-05T19:20:33.762Z,100080.00
2022-09-05T19:23:09.940Z,100083.00
2022-09-05T19:25:43.194Z,100077.00
2022-09-05T19:36:54.920Z,100073.00
2022-09-05T19:36:58.757Z,100068.00
2022-09-05T19:37:25.520Z,100074.00
2022-09-05T19:37:26.103Z,100074.00
2022-09-05T19:42:31.925Z,100076.00
2022-09-05T19:47:44.712Z,100061.00
2022-09-05T19:47:51.103Z,100068.00
2022-09-05T19:48:28.329Z,100070.00
2022-09-05T19:50:58.470Z,100053.00
2022-09-05T19:53:26.493Z,100075.00
2022-09-05T19:55:54.785Z,100066.00
2022-09-05T19:58:24.492Z,100066.00
2022-09-05T20:01:03.654Z,100065.00
2022-09-05T20:03:40.526Z,100063.00
2022-09-05T20:06:28.659Z,100045.00
2022-09-05T20:09:10.680Z,100061.00
2022-09-05T20:11:45.553Z,100057.00
2022-09-05T20:14:24.818Z,100053.00
2022-09-05T20:16:57.400Z,100057.00
2022-09-05T20:19:31.498Z,100058.00
2022-09-05T20:22:24.266Z,100052.00
2022-09-05T20:24:56.422Z,100056.00
2022-09-05T20:27:29.665Z,100044.00
2022-09-05T20:30:02.407Z,100061.00
2022-09-05T20:32:40.018Z,100060.00
2022-09-05T20:37:47.499Z,100056.00
2022-09-05T20:43:18.610Z,100057.00
2022-09-05T20:43:20.298Z,100063.00
2022-09-05T20:44:17.242Z,100061.00
2022-09-05T20:49:33.844Z,100069.00
2022-09-05T20:54:08.808Z,100056.00
2022-09-05T20:54:21.137Z,100061.00
2022-09-05T20:55:41.346Z,100058.00
2022-09-05T20:58:13.527Z,100060.00
2022-09-05T21:01:20.355Z,100053.00
2022-09-05T21:03:40.665Z,100063.00
2022-09-05T21:06:22.521Z,100026.00
2022-09-05T21:08:54.671Z,100061.00
2022-09-05T21:11:33.849Z,100058.00
2022-09-05T21:14:05.646Z,100058.00
2022-09-05T21:16:39.402Z,100054.00
2022-09-05T21:19:07.727Z,100053.00
2022-09-05T21:21:36.630Z,100057.00
2022-09-05T21:24:17.956Z,100052.00
2022-09-05T21:26:50.814Z,100055.00
2022-09-05T21:29:32.642Z,100051.00
2022-09-05T21:32:10.594Z,100040.00
2022-09-05T21:34:45.763Z,100048.00
2022-09-05T21:37:16.749Z,100047.00
2022-09-05T21:39:59.540Z,100046.00
2022-09-05T21:46:25.263Z,100043.00
2022-09-05T21:47:49.668Z,100041.00
2022-09-05T21:48:13.222Z,100041.00
2022-09-05T21:50:46.179Z,100043.00
2022-09-05T21:56:12.156Z,100036.00
2022-09-05T21:59:17.171Z,100032.00
2022-09-05T21:59:36.978Z,100035.00
2022-09-05T22:02:05.240Z,100036.00
2022-09-05T22:04:33.633Z,100033.00
2022-09-05T22:07:07.969Z,100034.00
2022-09-05T22:09:35.931Z,100037.00
2022-09-05T22:12:14.589Z,100030.00
2022-09-05T22:14:53.373Z,100027.00
2022-09-05T22:17:22.296Z,100030.00
2022-09-05T22:19:50.608Z,100030.00
2022-09-05T22:22:20.795Z,100029.00
2022-09-05T22:24:53.228Z,100031.00
2022-09-05T22:27:26.918Z,100019.00
2022-09-05T22:29:55.975Z,100028.00
2022-09-05T22:32:31.013Z,100018.00
2022-09-05T22:35:15.930Z,100024.00
2022-09-05T22:37:59.384Z,99993.00
2022-09-05T22:40:29.701Z,100006.00
2022-09-05T22:43:00.949Z,100008.00
2022-09-05T22:45:31.005Z,100008.00
2022-09-05T22:47:59.961Z,100004.00
2022-09-05T22:50:28.082Z,100005.00
2022-09-05T22:52:55.966Z,99999.00
2022-09-05T22:55:24.059Z,100004.00
2022-09-05T22:57:51.938Z,100015.00
2022-09-05T23:00:21.786Z,100000.00
2022-09-05T23:02:52.578Z,100009.00
2022-09-05T23:05:21.205Z,100003.00
2022-09-05T23:07:49.126Z,100006.00
2022-09-05T23:10:17.720Z,99997.00
2022-09-05T23:12:45.995Z,99999.00
2022-09-05T23:15:14.057Z,99956.00
2022-09-05T23:17:43.495Z,99991.00
2022-09-05T23:20:12.045Z,99995.00
2022-09-05T23:22:40.194Z,99991.00
2022-09-05T23:25:09.550Z,99977.00
2022-09-05T23:27:38.175Z,99977.00
2022-09-05T23:30:08.816Z,99968.00
2022-09-05T23:32:36.911Z,99977.00
2022-09-05T23:35:07.325Z,99967.00
2022-09-05T23:37:35.244Z,99963.00
2022-09-05T23:40:03.852Z,99963.00
2022-09-05T23:42:31.756Z,99967.00
2022-09-05T23:44:59.617Z,99962.00
2022-09-05T23:47:29.610Z,99963.00
2022-09-05T23:49:57.660Z,99963.00
2022-09-05T23:52:26.906Z,99970.00
2022-09-05T23:54:54.754Z,99965.00
2022-09-05T23:57:23.879Z,99965.00
2022-09-05T23:59:52.846Z,99970.00
